sensor_id;sensor_type;location;lat;lon;timestamp;P1;durP1;ratioP1;P2;durP2;ratioP2
75419;SDS011;63998;52.488;13.428;2024-01-15T00:00:12;7.50;;;3.93;;
75419;SDS011;63998;52.488;13.428;2024-01-15T00:02:38;7.38;;;4.28;;
75419;SDS011;63998;52.488;13.428;2024-01-15T00:05:03;5.50;;;3.53;;
75419;SDS011;63998;52.488;13.428;2024-01-15T00:07:29;7.85;;;3.53;;
75419;SDS011;63998;52.488;13.428;2024-01-15T00:09:54;9.13;;;4.37;;
75419;SDS011;63998;52.488;13.428;2024-01-15T00:12:20;11.17;;;5.10;;
75419;SDS011;63998;52.488;13.428;2024-01-15T00:14:45;7.47;;;3.37;;
75419;SDS011;63998;52.488;13.428;2024-01-15T00:17:10;8.13;;;4.43;;
75419;SDS011;63998;52.488;13.428;2024-01-15T00:19:35;6.25;;;2.92;;
75419;SDS011;63998;52.488;13.428;2024-01-15T00:22:01;8.53;;;3.83;;
75419;SDS011;63998;52.488;13.428;2024-01-15T00:24:26;10.20;;;5.63;;
75419;SDS011;63998;52.488;13.428;2024-01-15T00:26:51;5.63;;;2.87;;
75419;SDS011;63998;52.488;13.428;2024-01-15T00:29:18;8.10;;;4.03;;
75419;SDS011;63998;52.488;13.428;2024-01-15T00:31:44;6.93;;;3.65;;
75419;SDS011;63998;52.488;13.428;2024-01-15T00:34:09;5.67;;;2.57;;
75419;SDS011;63998;52.488;13.428;2024-01-15T00:36:35;8.07;;;4.63;;
75419;SDS011;63998;52.488;13.428;2024-01-15T00:39:00;10.25;;;4.97;;
75419;SDS011;63998;52.488;13.428;2024-01-15T00:41:25;11.77;;;5.20;;
75419;SDS011;63998;52.488;13.428;2024-01-15T00:43:52;6.18;;;3.60;;
75419;SDS011;63998;52.488;13.428;2024-01-15T00:46:18;8.65;;;2.72;;
75419;SDS011;63998;52.488;13.428;2024-01-15T00:48:43;12.03;;;5.37;;
75419;SDS011;63998;52.488;13.428;2024-01-15T00:51:08;11.63;;;5.78;;
75419;SDS011;63998;52.488;13.428;2024-01-15T00:53:34;5.80;;;2.60;;
75419;SDS011;63998;52.488;13.428;2024-01-15T00:55:59;7.07;;;3.40;;
75419;SDS011;63998;52.488;13.428;2024-01-15T00:58:25;8.82;;;4.30;;
75419;SDS011;63998;52.488;13.428;2024-01-15T01:00:51;7.43;;;3.65;;
75419;SDS011;63998;52.488;13.428;2024-01-15T01:03:16;7.88;;;4.05;;
75419;SDS011;63998;52.488;13.428;2024-01-15T01:05:42;7.10;;;3.90;;
75419;SDS011;63998;52.488;13.428;2024-01-15T01:08:08;5.35;;;3.38;;
75419;SDS011;63998;52.488;13.428;2024-01-15T01:10:33;4.93;;;2.20;;
75419;SDS011;63998;52.488;13.428;2024-01-15T01:12:58;9.13;;;4.53;;
75419;SDS011;63998;52.488;13.428;2024-01-15T01:15:24;7.80;;;2.70;;
75419;SDS011;63998;52.488;13.428;2024-01-15T01:17:49;6.38;;;3.38;;
75419;SDS011;63998;52.488;13.428;2024-01-15T01:20:15;9.23;;;4.93;;
75419;SDS011;63998;52.488;13.428;2024-01-15T01:22:40;8.35;;;4.78;;
75419;SDS011;63998;52.488;13.428;2024-01-15T01:25:06;9.20;;;4.07;;
75419;SDS011;63998;52.488;13.428;2024-01-15T01:27:32;7.97;;;3.55;;
75419;SDS011;63998;52.488;13.428;2024-01-15T01:29:57;9.50;;;4.40;;
75419;SDS011;63998;52.488;13.428;2024-01-15T01:32:22;10.85;;;5.65;;
75419;SDS011;63998;52.488;13.428;2024-01-15T01:34:48;8.40;;;4.37;;
75419;SDS011;63998;52.488;13.428;2024-01-15T01:37:13;9.07;;;4.10;;
75419;SDS011;63998;52.488;13.428;2024-01-15T01:39:39;11.48;;;5.47;;
75419;SDS011;63998;52.488;13.428;2024-01-15T01:42:05;10.00;;;3.95;;
75419;SDS011;63998;52.488;13.428;2024-01-15T01:44:31;8.98;;;4.68;;
75419;SDS011;63998;52.488;13.428;2024-01-15T01:46:57;7.60;;;3.45;;
75419;SDS011;63998;52.488;13.428;2024-01-15T01:49:24;10.25;;;5.22;;
75419;SDS011;63998;52.488;13.428;2024-01-15T01:51:50;10.80;;;4.85;;
75419;SDS011;63998;52.488;13.428;2024-01-15T01:54:16;10.90;;;4.75;;
75419;SDS011;63998;52.488;13.428;2024-01-15T01:56:43;10.63;;;4.47;;
75419;SDS011;63998;52.488;13.428;2024-01-15T01:59:09;7.00;;;3.53;;
75419;SDS011;63998;52.488;13.428;2024-01-15T02:01:36;8.55;;;3.97;;
75419;SDS011;63998;52.488;13.428;2024-01-15T02:04:01;10.25;;;4.00;;
75419;SDS011;63998;52.488;13.428;2024-01-15T02:06:28;13.07;;;6.03;;
75419;SDS011;63998;52.488;13.428;2024-01-15T02:08:53;10.37;;;4.80;;
75419;SDS011;63998;52.488;13.428;2024-01-15T02:11:19;7.75;;;3.80;;
75419;SDS011;63998;52.488;13.428;2024-01-15T02:13:44;13.03;;;6.03;;
75419;SDS011;63998;52.488;13.428;2024-01-15T02:16:09;11.52;;;5.88;;
75419;SDS011;63998;52.488;13.428;2024-01-15T02:18:44;11.93;;;5.20;;
75419;SDS011;63998;52.488;13.428;2024-01-15T02:21:11;11.15;;;5.78;;
75419;SDS011;63998;52.488;13.428;2024-01-15T02:23:37;10.05;;;4.68;;
75419;SDS011;63998;52.488;13.428;2024-01-15T02:26:02;11.65;;;4.68;;
75419;SDS011;63998;52.488;13.428;2024-01-15T02:28:29;7.97;;;3.83;;
75419;SDS011;63998;52.488;13.428;2024-01-15T02:30:55;10.48;;;3.92;;
75419;SDS011;63998;52.488;13.428;2024-01-15T02:33:20;6.90;;;2.55;;
75419;SDS011;63998;52.488;13.428;2024-01-15T02:35:46;8.52;;;4.05;;
75419;SDS011;63998;52.488;13.428;2024-01-15T02:38:11;9.70;;;4.03;;
75419;SDS011;63998;52.488;13.428;2024-01-15T02:40:37;8.73;;;3.90;;
75419;SDS011;63998;52.488;13.428;2024-01-15T02:43:03;9.32;;;4.18;;
75419;SDS011;63998;52.488;13.428;2024-01-15T02:45:28;5.10;;;3.05;;
75419;SDS011;63998;52.488;13.428;2024-01-15T02:47:54;10.23;;;4.60;;
75419;SDS011;63998;52.488;13.428;2024-01-15T02:50:19;6.87;;;3.03;;
75419;SDS011;63998;52.488;13.428;2024-01-15T02:52:44;6.60;;;3.27;;
75419;SDS011;63998;52.488;13.428;2024-01-15T02:55:10;5.95;;;3.17;;
75419;SDS011;63998;52.488;13.428;2024-01-15T02:57:35;8.23;;;4.13;;
75419;SDS011;63998;52.488;13.428;2024-01-15T03:00:01;6.65;;;3.60;;
75419;SDS011;63998;52.488;13.428;2024-01-15T03:02:26;6.80;;;2.83;;
75419;SDS011;63998;52.488;13.428;2024-01-15T03:04:51;4.77;;;2.37;;
75419;SDS011;63998;52.488;13.428;2024-01-15T03:07:17;4.63;;;2.23;;
75419;SDS011;63998;52.488;13.428;2024-01-15T03:09:42;7.22;;;3.00;;
75419;SDS011;63998;52.488;13.428;2024-01-15T03:12:08;5.13;;;2.85;;
75419;SDS011;63998;52.488;13.428;2024-01-15T03:14:33;7.33;;;4.00;;
75419;SDS011;63998;52.488;13.428;2024-01-15T03:16:58;5.90;;;3.17;;
75419;SDS011;63998;52.488;13.428;2024-01-15T03:19:25;6.40;;;3.42;;
75419;SDS011;63998;52.488;13.428;2024-01-15T03:21:51;9.00;;;3.47;;
75419;SDS011;63998;52.488;13.428;2024-01-15T03:24:16;8.53;;;3.10;;
75419;SDS011;63998;52.488;13.428;2024-01-15T03:26:41;7.43;;;3.80;;
75419;SDS011;63998;52.488;13.428;2024-01-15T03:29:06;6.30;;;2.83;;
75419;SDS011;63998;52.488;13.428;2024-01-15T03:31:32;6.72;;;3.22;;
75419;SDS011;63998;52.488;13.428;2024-01-15T03:33:57;7.88;;;2.83;;
75419;SDS011;63998;52.488;13.428;2024-01-15T03:36:23;6.63;;;3.13;;
75419;SDS011;63998;52.488;13.428;2024-01-15T03:38:48;10.53;;;4.57;;
75419;SDS011;63998;52.488;13.428;2024-01-15T03:41:13;8.57;;;3.87;;
75419;SDS011;63998;52.488;13.428;2024-01-15T03:43:38;6.00;;;3.33;;
75419;SDS011;63998;52.488;13.428;2024-01-15T03:46:04;7.47;;;2.83;;
75419;SDS011;63998;52.488;13.428;2024-01-15T03:48:30;6.95;;;3.28;;
75419;SDS011;63998;52.488;13.428;2024-01-15T03:50:55;5.03;;;2.57;;
75419;SDS011;63998;52.488;13.428;2024-01-15T03:53:21;8.60;;;3.57;;
75419;SDS011;63998;52.488;13.428;2024-01-15T03:55:46;7.25;;;2.65;;
75419;SDS011;63998;52.488;13.428;2024-01-15T03:58:12;2.75;;;1.85;;
75419;SDS011;63998;52.488;13.428;2024-01-15T04:00:39;5.78;;;2.60;;
75419;SDS011;63998;52.488;13.428;2024-01-15T04:03:05;4.28;;;2.10;;
75419;SDS011;63998;52.488;13.428;2024-01-15T04:05:30;9.32;;;2.83;;
75419;SDS011;63998;52.488;13.428;2024-01-15T04:07:56;6.00;;;2.67;;
75419;SDS011;63998;52.488;13.428;2024-01-15T04:10:21;3.50;;;2.23;;
75419;SDS011;63998;52.488;13.428;2024-01-15T04:12:46;6.53;;;3.20;;
75419;SDS011;63998;52.488;13.428;2024-01-15T04:15:12;5.23;;;2.17;;
75419;SDS011;63998;52.488;13.428;2024-01-15T04:17:37;4.47;;;2.38;;
75419;SDS011;63998;52.488;13.428;2024-01-15T04:20:03;3.63;;;2.17;;
75419;SDS011;63998;52.488;13.428;2024-01-15T04:22:29;6.95;;;2.25;;
75419;SDS011;63998;52.488;13.428;2024-01-15T04:24:54;4.03;;;2.33;;
75419;SDS011;63998;52.488;13.428;2024-01-15T04:27:19;4.70;;;1.98;;
75419;SDS011;63998;52.488;13.428;2024-01-15T04:29:45;5.93;;;2.33;;
75419;SDS011;63998;52.488;13.428;2024-01-15T04:32:10;3.03;;;1.52;;
75419;SDS011;63998;52.488;13.428;2024-01-15T04:34:35;7.47;;;2.20;;
75419;SDS011;63998;52.488;13.428;2024-01-15T04:37:01;4.27;;;2.50;;
75419;SDS011;63998;52.488;13.428;2024-01-15T04:39:26;9.93;;;1.95;;
75419;SDS011;63998;52.488;13.428;2024-01-15T04:41:52;1.77;;;1.43;;
75419;SDS011;63998;52.488;13.428;2024-01-15T04:44:17;4.55;;;2.03;;
75419;SDS011;63998;52.488;13.428;2024-01-15T04:46:43;6.60;;;2.80;;
75419;SDS011;63998;52.488;13.428;2024-01-15T04:49:09;5.93;;;1.73;;
75419;SDS011;63998;52.488;13.428;2024-01-15T04:51:34;4.57;;;1.55;;
75419;SDS011;63998;52.488;13.428;2024-01-15T04:53:59;5.47;;;2.10;;
75419;SDS011;63998;52.488;13.428;2024-01-15T04:56:25;4.78;;;1.73;;
75419;SDS011;63998;52.488;13.428;2024-01-15T04:58:50;3.03;;;1.47;;
75419;SDS011;63998;52.488;13.428;2024-01-15T05:01:16;5.40;;;1.87;;
75419;SDS011;63998;52.488;13.428;2024-01-15T05:03:42;4.35;;;1.73;;
75419;SDS011;63998;52.488;13.428;2024-01-15T05:06:07;5.60;;;1.50;;
75419;SDS011;63998;52.488;13.428;2024-01-15T05:08:32;4.37;;;1.60;;
75419;SDS011;63998;52.488;13.428;2024-01-15T05:10:58;4.63;;;1.40;;
75419;SDS011;63998;52.488;13.428;2024-01-15T05:13:23;4.22;;;1.52;;
75419;SDS011;63998;52.488;13.428;2024-01-15T05:15:48;5.40;;;1.87;;
75419;SDS011;63998;52.488;13.428;2024-01-15T05:18:14;1.53;;;0.87;;
75419;SDS011;63998;52.488;13.428;2024-01-15T05:20:39;3.73;;;1.43;;
75419;SDS011;63998;52.488;13.428;2024-01-15T05:23:04;4.83;;;1.30;;
75419;SDS011;63998;52.488;13.428;2024-01-15T05:25:29;3.73;;;1.07;;
75419;SDS011;63998;52.488;13.428;2024-01-15T05:27:55;4.10;;;1.70;;
75419;SDS011;63998;52.488;13.428;2024-01-15T05:30:20;3.05;;;1.05;;
75419;SDS011;63998;52.488;13.428;2024-01-15T05:32:45;4.23;;;1.60;;
75419;SDS011;63998;52.488;13.428;2024-01-15T05:35:11;5.93;;;1.53;;
75419;SDS011;63998;52.488;13.428;2024-01-15T05:37:36;2.23;;;0.83;;
75419;SDS011;63998;52.488;13.428;2024-01-15T05:40:01;4.60;;;1.60;;
75419;SDS011;63998;52.488;13.428;2024-01-15T05:42:29;8.43;;;3.15;;
75419;SDS011;63998;52.488;13.428;2024-01-15T05:44:56;4.47;;;1.50;;
75419;SDS011;63998;52.488;13.428;2024-01-15T05:47:24;2.78;;;1.20;;
75419;SDS011;63998;52.488;13.428;2024-01-15T05:49:49;2.15;;;1.15;;
75419;SDS011;63998;52.488;13.428;2024-01-15T05:52:15;6.03;;;2.10;;
75419;SDS011;63998;52.488;13.428;2024-01-15T05:54:41;4.13;;;1.10;;
75419;SDS011;63998;52.488;13.428;2024-01-15T05:57:06;1.23;;;0.93;;
75419;SDS011;63998;52.488;13.428;2024-01-15T05:59:32;2.17;;;1.02;;
75419;SDS011;63998;52.488;13.428;2024-01-15T06:01:59;2.13;;;1.10;;
75419;SDS011;63998;52.488;13.428;2024-01-15T06:04:24;2.53;;;0.83;;
75419;SDS011;63998;52.488;13.428;2024-01-15T06:06:49;3.03;;;1.10;;
75419;SDS011;63998;52.488;13.428;2024-01-15T06:09:15;7.23;;;2.00;;
75419;SDS011;63998;52.488;13.428;2024-01-15T06:11:40;3.60;;;1.20;;
75419;SDS011;63998;52.488;13.428;2024-01-15T06:14:05;13.57;;;1.73;;
75419;SDS011;63998;52.488;13.428;2024-01-15T06:16:31;3.63;;;1.10;;
75419;SDS011;63998;52.488;13.428;2024-01-15T06:18:56;4.55;;;1.40;;
75419;SDS011;63998;52.488;13.428;2024-01-15T06:21:21;4.43;;;1.63;;
75419;SDS011;63998;52.488;13.428;2024-01-15T06:23:47;3.22;;;1.17;;
75419;SDS011;63998;52.488;13.428;2024-01-15T06:26:12;1.17;;;0.90;;
75419;SDS011;63998;52.488;13.428;2024-01-15T06:28:38;3.80;;;1.53;;
75419;SDS011;63998;52.488;13.428;2024-01-15T06:31:03;1.88;;;0.93;;
75419;SDS011;63998;52.488;13.428;2024-01-15T06:33:29;5.15;;;0.77;;
75419;SDS011;63998;52.488;13.428;2024-01-15T06:35:54;2.60;;;1.30;;
75419;SDS011;63998;52.488;13.428;2024-01-15T06:38:19;1.02;;;0.65;;
75419;SDS011;63998;52.488;13.428;2024-01-15T06:40:45;2.57;;;1.20;;
75419;SDS011;63998;52.488;13.428;2024-01-15T06:43:13;1.50;;;1.05;;
75419;SDS011;63998;52.488;13.428;2024-01-15T06:45:40;5.07;;;1.00;;
75419;SDS011;63998;52.488;13.428;2024-01-15T06:48:05;2.67;;;0.90;;
75419;SDS011;63998;52.488;13.428;2024-01-15T06:50:32;1.63;;;0.80;;
75419;SDS011;63998;52.488;13.428;2024-01-15T06:52:57;1.07;;;0.63;;
75419;SDS011;63998;52.488;13.428;2024-01-15T06:55:22;3.43;;;0.87;;
75419;SDS011;63998;52.488;13.428;2024-01-15T06:57:48;2.83;;;0.50;;
75419;SDS011;63998;52.488;13.428;2024-01-15T07:00:13;1.67;;;1.00;;
75419;SDS011;63998;52.488;13.428;2024-01-15T07:02:39;2.75;;;0.90;;
75419;SDS011;63998;52.488;13.428;2024-01-15T07:05:04;3.85;;;0.98;;
75419;SDS011;63998;52.488;13.428;2024-01-15T07:07:30;2.33;;;0.50;;
75419;SDS011;63998;52.488;13.428;2024-01-15T07:09:56;2.30;;;0.65;;
75419;SDS011;63998;52.488;13.428;2024-01-15T07:12:21;1.35;;;0.80;;
75419;SDS011;63998;52.488;13.428;2024-01-15T07:14:46;2.40;;;0.88;;
75419;SDS011;63998;52.488;13.428;2024-01-15T07:17:12;3.40;;;1.43;;
75419;SDS011;63998;52.488;13.428;2024-01-15T07:19:37;3.07;;;1.73;;
75419;SDS011;63998;52.488;13.428;2024-01-15T07:22:02;0.97;;;0.50;;
75419;SDS011;63998;52.488;13.428;2024-01-15T07:24:28;1.65;;;0.70;;
75419;SDS011;63998;52.488;13.428;2024-01-15T07:26:53;4.00;;;0.97;;
75419;SDS011;63998;52.488;13.428;2024-01-15T07:29:19;7.60;;;1.10;;
75419;SDS011;63998;52.488;13.428;2024-01-15T07:31:51;3.30;;;0.67;;
75419;SDS011;63998;52.488;13.428;2024-01-15T07:34:17;5.20;;;0.55;;
75419;SDS011;63998;52.488;13.428;2024-01-15T07:36:45;5.38;;;0.90;;
75419;SDS011;63998;52.488;13.428;2024-01-15T07:39:11;6.32;;;1.08;;
75419;SDS011;63998;52.488;13.428;2024-01-15T07:41:36;5.75;;;1.15;;
75419;SDS011;63998;52.488;13.428;2024-01-15T07:44:02;4.38;;;1.20;;
75419;SDS011;63998;52.488;13.428;2024-01-15T07:46:27;3.05;;;0.63;;
75419;SDS011;63998;52.488;13.428;2024-01-15T07:48:58;2.90;;;1.00;;
75419;SDS011;63998;52.488;13.428;2024-01-15T07:51:23;4.60;;;1.10;;
75419;SDS011;63998;52.488;13.428;2024-01-15T07:53:50;5.18;;;0.80;;
75419;SDS011;63998;52.488;13.428;2024-01-15T07:56:18;2.15;;;0.98;;
75419;SDS011;63998;52.488;13.428;2024-01-15T07:58:44;10.45;;;1.45;;
75419;SDS011;63998;52.488;13.428;2024-01-15T08:01:09;1.95;;;0.70;;
75419;SDS011;63998;52.488;13.428;2024-01-15T08:03:34;3.70;;;0.57;;
75419;SDS011;63998;52.488;13.428;2024-01-15T08:06:00;7.73;;;1.23;;
75419;SDS011;63998;52.488;13.428;2024-01-15T08:08:25;4.67;;;1.57;;
75419;SDS011;63998;52.488;13.428;2024-01-15T08:10:53;2.28;;;0.50;;
75419;SDS011;63998;52.488;13.428;2024-01-15T08:13:18;4.43;;;1.03;;
75419;SDS011;63998;52.488;13.428;2024-01-15T08:15:45;6.50;;;0.75;;
75419;SDS011;63998;52.488;13.428;2024-01-15T08:18:10;2.50;;;1.10;;
75419;SDS011;63998;52.488;13.428;2024-01-15T08:20:36;5.05;;;0.95;;
75419;SDS011;63998;52.488;13.428;2024-01-15T08:23:02;2.97;;;0.98;;
75419;SDS011;63998;52.488;13.428;2024-01-15T08:25:27;3.95;;;0.93;;
75419;SDS011;63998;52.488;13.428;2024-01-15T08:27:52;2.78;;;0.70;;
75419;SDS011;63998;52.488;13.428;2024-01-15T08:30:18;6.85;;;1.30;;
75419;SDS011;63998;52.488;13.428;2024-01-15T08:32:44;1.42;;;0.60;;
75419;SDS011;63998;52.488;13.428;2024-01-15T08:35:10;7.18;;;1.05;;
75419;SDS011;63998;52.488;13.428;2024-01-15T08:37:36;3.83;;;0.70;;
75419;SDS011;63998;52.488;13.428;2024-01-15T08:40:02;2.17;;;0.52;;
75419;SDS011;63998;52.488;13.428;2024-01-15T08:42:28;4.30;;;1.00;;
75419;SDS011;63998;52.488;13.428;2024-01-15T08:44:54;1.88;;;0.70;;
75419;SDS011;63998;52.488;13.428;2024-01-15T08:47:19;3.03;;;0.90;;
75419;SDS011;63998;52.488;13.428;2024-01-15T08:49:44;5.03;;;0.93;;
75419;SDS011;63998;52.488;13.428;2024-01-15T08:52:11;2.75;;;0.90;;
75419;SDS011;63998;52.488;13.428;2024-01-15T08:54:36;1.92;;;0.70;;
75419;SDS011;63998;52.488;13.428;2024-01-15T08:57:01;4.97;;;1.20;;
75419;SDS011;63998;52.488;13.428;2024-01-15T08:59:27;3.25;;;0.88;;
75419;SDS011;63998;52.488;13.428;2024-01-15T09:01:53;5.40;;;0.63;;
75419;SDS011;63998;52.488;13.428;2024-01-15T09:04:18;5.22;;;1.25;;
75419;SDS011;63998;52.488;13.428;2024-01-15T09:06:47;1.55;;;0.95;;
75419;SDS011;63998;52.488;13.428;2024-01-15T09:09:12;1.52;;;0.52;;
75419;SDS011;63998;52.488;13.428;2024-01-15T09:11:39;5.32;;;1.52;;
75419;SDS011;63998;52.488;13.428;2024-01-15T09:14:08;1.30;;;0.43;;
75419;SDS011;63998;52.488;13.428;2024-01-15T09:16:34;3.88;;;0.98;;
75419;SDS011;63998;52.488;13.428;2024-01-15T09:18:59;2.75;;;0.85;;
75419;SDS011;63998;52.488;13.428;2024-01-15T09:21:25;7.18;;;1.08;;
75419;SDS011;63998;52.488;13.428;2024-01-15T09:23:50;2.58;;;0.88;;
75419;SDS011;63998;52.488;13.428;2024-01-15T09:26:16;2.25;;;1.08;;
75419;SDS011;63998;52.488;13.428;2024-01-15T09:28:41;2.67;;;0.93;;
75419;SDS011;63998;52.488;13.428;2024-01-15T09:31:07;2.53;;;1.13;;
75419;SDS011;63998;52.488;13.428;2024-01-15T09:33:32;1.13;;;0.47;;
75419;SDS011;63998;52.488;13.428;2024-01-15T09:36:00;2.90;;;0.80;;
75419;SDS011;63998;52.488;13.428;2024-01-15T09:38:27;1.30;;;0.75;;
75419;SDS011;63998;52.488;13.428;2024-01-15T09:40:52;2.73;;;0.87;;
75419;SDS011;63998;52.488;13.428;2024-01-15T09:43:17;4.13;;;0.80;;
75419;SDS011;63998;52.488;13.428;2024-01-15T09:45:44;6.38;;;1.33;;
75419;SDS011;63998;52.488;13.428;2024-01-15T09:48:10;4.60;;;1.38;;
75419;SDS011;63998;52.488;13.428;2024-01-15T09:50:35;3.45;;;0.80;;
75419;SDS011;63998;52.488;13.428;2024-01-15T09:53:01;4.22;;;0.68;;
75419;SDS011;63998;52.488;13.428;2024-01-15T09:55:27;5.57;;;1.00;;
75419;SDS011;63998;52.488;13.428;2024-01-15T09:57:53;2.35;;;0.43;;
75419;SDS011;63998;52.488;13.428;2024-01-15T10:00:21;2.92;;;1.20;;
75419;SDS011;63998;52.488;13.428;2024-01-15T10:02:47;5.03;;;1.33;;
75419;SDS011;63998;52.488;13.428;2024-01-15T10:05:13;5.70;;;0.82;;
75419;SDS011;63998;52.488;13.428;2024-01-15T10:07:38;1.63;;;0.80;;
75419;SDS011;63998;52.488;13.428;2024-01-15T10:10:05;3.08;;;0.93;;
75419;SDS011;63998;52.488;13.428;2024-01-15T10:12:32;1.98;;;0.70;;
75419;SDS011;63998;52.488;13.428;2024-01-15T10:14:57;4.97;;;0.82;;
75419;SDS011;63998;52.488;13.428;2024-01-15T10:17:23;2.47;;;0.80;;
75419;SDS011;63998;52.488;13.428;2024-01-15T10:19:50;4.10;;;0.85;;
75419;SDS011;63998;52.488;13.428;2024-01-15T10:22:15;3.90;;;0.87;;
75419;SDS011;63998;52.488;13.428;2024-01-15T10:24:42;2.22;;;0.70;;
75419;SDS011;63998;52.488;13.428;2024-01-15T10:27:08;4.40;;;0.70;;
75419;SDS011;63998;52.488;13.428;2024-01-15T10:29:34;1.55;;;0.50;;
75419;SDS011;63998;52.488;13.428;2024-01-15T10:32:00;0.68;;;0.43;;
75419;SDS011;63998;52.488;13.428;2024-01-15T10:34:26;1.38;;;0.73;;
75419;SDS011;63998;52.488;13.428;2024-01-15T10:36:51;0.73;;;0.50;;
75419;SDS011;63998;52.488;13.428;2024-01-15T10:39:21;2.20;;;0.70;;
75419;SDS011;63998;52.488;13.428;2024-01-15T10:41:47;3.05;;;0.93;;
75419;SDS011;63998;52.488;13.428;2024-01-15T10:44:12;5.93;;;1.17;;
75419;SDS011;63998;52.488;13.428;2024-01-15T10:46:38;6.30;;;1.10;;
75419;SDS011;63998;52.488;13.428;2024-01-15T10:49:04;1.77;;;0.80;;
75419;SDS011;63998;52.488;13.428;2024-01-15T10:51:30;4.38;;;0.60;;
75419;SDS011;63998;52.488;13.428;2024-01-15T10:53:56;3.47;;;0.88;;
75419;SDS011;63998;52.488;13.428;2024-01-15T10:56:22;1.75;;;0.75;;
75419;SDS011;63998;52.488;13.428;2024-01-15T10:58:49;1.52;;;0.70;;
75419;SDS011;63998;52.488;13.428;2024-01-15T11:01:15;1.65;;;1.00;;
75419;SDS011;63998;52.488;13.428;2024-01-15T11:03:42;2.92;;;0.70;;
75419;SDS011;63998;52.488;13.428;2024-01-15T11:06:17;0.75;;;0.50;;
75419;SDS011;63998;52.488;13.428;2024-01-15T11:08:45;1.95;;;0.52;;
75419;SDS011;63998;52.488;13.428;2024-01-15T11:11:13;3.22;;;0.90;;
75419;SDS011;63998;52.488;13.428;2024-01-15T11:13:41;3.85;;;0.70;;
75419;SDS011;63998;52.488;13.428;2024-01-15T11:16:09;3.33;;;0.90;;
75419;SDS011;63998;52.488;13.428;2024-01-15T11:18:37;3.17;;;0.93;;
75419;SDS011;63998;52.488;13.428;2024-01-15T11:28:55;1.15;;;0.65;;
75419;SDS011;63998;52.488;13.428;2024-01-15T11:34:05;3.25;;;0.98;;
75419;SDS011;63998;52.488;13.428;2024-01-15T11:41:53;0.70;;;0.43;;
75419;SDS011;63998;52.488;13.428;2024-01-15T11:44:20;1.23;;;0.30;;
75419;SDS011;63998;52.488;13.428;2024-01-15T11:46:49;1.00;;;0.60;;
75419;SDS011;63998;52.488;13.428;2024-01-15T11:49:35;1.75;;;0.80;;
75419;SDS011;63998;52.488;13.428;2024-01-15T11:52:21;1.95;;;0.77;;
75419;SDS011;63998;52.488;13.428;2024-01-15T11:57:41;1.60;;;0.77;;
75419;SDS011;63998;52.488;13.428;2024-01-15T12:00:11;2.03;;;0.52;;
75419;SDS011;63998;52.488;13.428;2024-01-15T12:02:40;3.30;;;1.20;;
75419;SDS011;63998;52.488;13.428;2024-01-15T12:05:09;2.88;;;0.80;;
75419;SDS011;63998;52.488;13.428;2024-01-15T12:07:37;2.78;;;0.85;;
75419;SDS011;63998;52.488;13.428;2024-01-15T12:10:07;2.55;;;0.88;;
75419;SDS011;63998;52.488;13.428;2024-01-15T12:15:09;1.63;;;1.13;;
75419;SDS011;63998;52.488;13.428;2024-01-15T12:17:35;2.70;;;0.90;;
75419;SDS011;63998;52.488;13.428;2024-01-15T12:20:01;0.95;;;0.63;;
75419;SDS011;63998;52.488;13.428;2024-01-15T12:22:28;0.90;;;0.57;;
75419;SDS011;63998;52.488;13.428;2024-01-15T12:24:56;2.40;;;0.77;;
75419;SDS011;63998;52.488;13.428;2024-01-15T12:27:22;0.73;;;0.32;;
75419;SDS011;63998;52.488;13.428;2024-01-15T12:29:48;2.15;;;1.20;;
75419;SDS011;63998;52.488;13.428;2024-01-15T12:32:14;2.67;;;1.13;;
75419;SDS011;63998;52.488;13.428;2024-01-15T12:34:39;2.90;;;1.10;;
75419;SDS011;63998;52.488;13.428;2024-01-15T12:37:06;1.20;;;0.70;;
75419;SDS011;63998;52.488;13.428;2024-01-15T12:39:33;3.83;;;0.70;;
75419;SDS011;63998;52.488;13.428;2024-01-15T12:42:00;2.38;;;0.80;;
75419;SDS011;63998;52.488;13.428;2024-01-15T12:44:26;1.20;;;0.70;;
75419;SDS011;63998;52.488;13.428;2024-01-15T12:46:51;3.63;;;0.75;;
75419;SDS011;63998;52.488;13.428;2024-01-15T12:49:17;1.98;;;0.90;;
75419;SDS011;63998;52.488;13.428;2024-01-15T12:51:42;2.40;;;1.00;;
75419;SDS011;63998;52.488;13.428;2024-01-15T12:54:08;2.13;;;0.50;;
75419;SDS011;63998;52.488;13.428;2024-01-15T12:56:33;0.47;;;0.30;;
75419;SDS011;63998;52.488;13.428;2024-01-15T12:58:58;2.20;;;1.07;;
75419;SDS011;63998;52.488;13.428;2024-01-15T13:01:26;3.17;;;0.90;;
75419;SDS011;63998;52.488;13.428;2024-01-15T13:03:51;4.27;;;0.83;;
75419;SDS011;63998;52.488;13.428;2024-01-15T13:06:17;1.05;;;0.50;;
75419;SDS011;63998;52.488;13.428;2024-01-15T13:08:42;2.33;;;0.97;;
75419;SDS011;63998;52.488;13.428;2024-01-15T13:11:07;1.20;;;0.90;;
75419;SDS011;63998;52.488;13.428;2024-01-15T13:13:33;1.70;;;0.70;;
75419;SDS011;63998;52.488;13.428;2024-01-15T13:15:59;5.13;;;0.90;;
75419;SDS011;63998;52.488;13.428;2024-01-15T13:18:25;1.02;;;0.55;;
75419;SDS011;63998;52.488;13.428;2024-01-15T13:20:50;1.80;;;0.95;;
75419;SDS011;63998;52.488;13.428;2024-01-15T13:23:16;1.70;;;0.90;;
75419;SDS011;63998;52.488;13.428;2024-01-15T13:25:41;2.03;;;0.65;;
75419;SDS011;63998;52.488;13.428;2024-01-15T13:28:07;2.60;;;1.15;;
75419;SDS011;63998;52.488;13.428;2024-01-15T13:30:33;1.85;;;1.20;;
75419;SDS011;63998;52.488;13.428;2024-01-15T13:32:58;1.67;;;0.88;;
75419;SDS011;63998;52.488;13.428;2024-01-15T13:35:28;2.20;;;0.90;;
75419;SDS011;63998;52.488;13.428;2024-01-15T13:37:54;1.30;;;0.73;;
75419;SDS011;63998;52.488;13.428;2024-01-15T13:40:19;3.97;;;1.30;;
75419;SDS011;63998;52.488;13.428;2024-01-15T13:42:45;1.65;;;0.80;;
75419;SDS011;63998;52.488;13.428;2024-01-15T13:45:11;3.15;;;1.30;;
75419;SDS011;63998;52.488;13.428;2024-01-15T13:47:39;4.55;;;1.05;;
75419;SDS011;63998;52.488;13.428;2024-01-15T13:50:05;0.80;;;0.63;;
75419;SDS011;63998;52.488;13.428;2024-01-15T13:52:32;2.92;;;0.80;;
75419;SDS011;63998;52.488;13.428;2024-01-15T13:54:57;2.97;;;1.05;;
75419;SDS011;63998;52.488;13.428;2024-01-15T13:57:22;3.50;;;1.17;;
75419;SDS011;63998;52.488;13.428;2024-01-15T13:59:48;2.23;;;0.80;;
75419;SDS011;63998;52.488;13.428;2024-01-15T14:02:14;3.50;;;0.75;;
75419;SDS011;63998;52.488;13.428;2024-01-15T14:04:40;1.17;;;0.90;;
75419;SDS011;63998;52.488;13.428;2024-01-15T14:07:06;1.20;;;0.73;;
75419;SDS011;63998;52.488;13.428;2024-01-15T14:09:31;3.83;;;1.33;;
75419;SDS011;63998;52.488;13.428;2024-01-15T14:11:59;2.67;;;0.90;;
75419;SDS011;63998;52.488;13.428;2024-01-15T14:14:25;2.70;;;0.60;;
75419;SDS011;63998;52.488;13.428;2024-01-15T14:16:50;3.50;;;0.70;;
75419;SDS011;63998;52.488;13.428;2024-01-15T14:19:15;1.23;;;0.70;;
75419;SDS011;63998;52.488;13.428;2024-01-15T14:21:41;1.87;;;1.00;;
75419;SDS011;63998;52.488;13.428;2024-01-15T14:24:06;2.00;;;0.67;;
75419;SDS011;63998;52.488;13.428;2024-01-15T14:26:31;3.50;;;1.33;;
75419;SDS011;63998;52.488;13.428;2024-01-15T14:28:57;1.33;;;0.60;;
75419;SDS011;63998;52.488;13.428;2024-01-15T14:31:24;2.13;;;0.80;;
75419;SDS011;63998;52.488;13.428;2024-01-15T14:33:51;2.38;;;1.00;;
75419;SDS011;63998;52.488;13.428;2024-01-15T14:36:17;4.25;;;0.52;;
75419;SDS011;63998;52.488;13.428;2024-01-15T14:38:42;1.27;;;0.60;;
75419;SDS011;63998;52.488;13.428;2024-01-15T14:41:07;1.03;;;0.53;;
75419;SDS011;63998;52.488;13.428;2024-01-15T14:43:33;1.80;;;0.70;;
75419;SDS011;63998;52.488;13.428;2024-01-15T14:45:58;1.57;;;0.80;;